Wellman, Iowa
Current Conditions -  °F | °C
As of 10:15 PM on Sunday 21 Dec 2014 (Local Time) from KAWG Reporting Station
Overcast Overcast  
Wind Chill: 31°   Ceiling: 1600
Heat Index: 39°   Visibility: 8mi
Dew Point: 39°   Wind: 15mph
Humidity: 100%   Direction: 150°SSE
Pressure: 29.87"   Gusts: NA
Location:  41.46°N, 91.84°W
Report Text: KAWG 220415Z AUTO 15013KT 8SM OVC016 04/04 A2987 RMK AO2
Loading
Personal Weather Stations






























Interactive Weather Map New forecast layout! Learn more

10-Day Weather Forecast

Advertisements
Track Severe Weather on mobile